Time;durP1;ratioP1;P1;durP2;ratioP2;P2;SDS_P1;SDS_P2;PMS_P1;PMS_P2;Temp;Humidity;BMP_temperature;BMP_pressure;BME280_temperature;BME280_humidity;BME280_pressure;Samples;Min_cycle;Max_cycle;Signal;HPM_P1;HPM_P2
2023/06/05 00:00:29;;;;;;;4.65;2.17;;;;;;;15.32;52.88;99313.09;4975298;28;20038;-74
2023/06/05 00:02:55;;;;;;;2.88;2.53;;;;;;;15.28;53.49;99321.94;4972920;28;20038;-72
2023/06/05 00:05:20;;;;;;;4.32;2.78;;;;;;;15.27;53.06;99320.31;4970429;28;20048;-73
2023/06/05 00:07:45;;;;;;;3.67;2.20;;;;;;;15.21;53.22;99313.31;4979006;28;20038;-74
2023/06/05 00:10:13;;;;;;;4.75;2.08;;;;;;;15.16;53.44;99316.81;4979831;28;20038;-73
2023/06/05 00:12:39;;;;;;;2.92;2.25;;;;;;;15.12;53.59;99314.94;4977526;28;20042;-74
2023/06/05 00:15:05;;;;;;;3.85;2.15;;;;;;;15.18;53.46;99319.25;4970603;28;20038;-74
2023/06/05 00:17:30;;;;;;;4.25;2.55;;;;;;;15.07;53.46;99323.78;4977575;28;20076;-75
2023/06/05 00:19:58;;;;;;;7.03;2.40;;;;;;;15.07;53.53;99328.38;4974932;28;20712;-75
2023/06/05 00:22:27;;;;;;;5.50;2.63;;;;;;;15.02;53.34;99319.22;4971744;28;20057;-73
2023/06/05 00:24:52;;;;;;;3.00;2.05;;;;;;;14.98;53.53;99318.13;4972734;28;20412;-75
2023/06/05 00:27:18;;;;;;;3.92;2.90;;;;;;;14.93;53.47;99318.13;4972649;28;20038;-72
2023/06/05 00:29:43;;;;;;;6.45;2.40;;;;;;;14.89;53.66;99308.97;4980140;28;20064;-74
2023/06/05 00:32:08;;;;;;;3.55;2.42;;;;;;;14.83;53.64;99301.97;4983652;28;20038;-75
2023/06/05 00:34:34;;;;;;;3.53;2.35;;;;;;;14.84;53.59;99306.28;4972559;28;20038;-74
2023/06/05 00:37:00;;;;;;;3.53;2.50;;;;;;;14.78;53.85;99306.53;4976232;28;20065;-73
2023/06/05 00:39:25;;;;;;;4.35;2.78;;;;;;;14.71;54.26;99311.34;4978099;28;20620;-73
2023/06/05 00:41:50;;;;;;;3.22;2.72;;;;;;;14.72;54.16;99316.44;4975005;28;20057;-72
2023/06/05 00:44:18;;;;;;;4.88;2.42;;;;;;;14.59;54.45;99319.59;4974236;28;20033;-75
2023/06/05 00:46:43;;;;;;;2.90;2.47;;;;;;;14.57;54.25;99304.84;4971789;28;20045;-75
2023/06/05 00:49:10;;;;;;;5.70;2.90;;;;;;;14.69;54.31;99305.41;4968664;28;20042;-72
2023/06/05 00:51:35;;;;;;;3.70;2.00;;;;;;;14.62;54.39;99302.97;4973863;28;20473;-74
2023/06/05 00:54:01;;;;;;;4.57;2.42;;;;;;;14.55;54.36;99297.03;4971677;28;20076;-73
2023/06/05 00:56:27;;;;;;;4.78;2.53;;;;;;;14.58;54.68;99309.13;4969425;28;20030;-77
2023/06/05 00:58:53;;;;;;;4.50;2.60;;;;;;;14.52;54.69;99294.06;4972250;28;20407;-77
2023/06/05 01:01:20;;;;;;;2.63;2.38;;;;;;;14.26;55.45;99306.56;4971983;28;20038;-74
2023/06/05 01:03:47;;;;;;;3.10;2.75;;;;;;;14.46;55.38;99308.56;4970076;28;20035;-76
2023/06/05 01:06:13;;;;;;;3.00;2.45;;;;;;;14.45;54.76;99301.56;4971915;28;20077;-76
2023/06/05 01:08:39;;;;;;;2.55;2.20;;;;;;;14.18;55.71;99315.91;4971129;28;20062;-76
2023/06/05 01:11:31;;;;;;;3.53;2.53;;;;;;;14.40;55.25;99310.41;4977197;28;20036;-77
2023/06/05 01:14:20;;;;;;;5.10;2.47;;;;;;;14.45;55.24;99310.44;4975428;28;20034;-76
2023/06/05 01:16:48;;;;;;;3.75;2.65;;;;;;;14.39;55.41;99308.78;4977747;28;20035;-76
2023/06/05 01:19:15;;;;;;;6.60;2.83;;;;;;;14.44;55.53;99305.31;4972339;28;20041;-76
2023/06/05 01:21:40;;;;;;;4.05;2.75;;;;;;;14.34;55.17;99310.63;4977256;28;20026;-76
2023/06/05 01:24:06;;;;;;;4.47;2.53;;;;;;;14.37;55.65;99310.13;4971568;28;20039;-77
2023/06/05 01:26:52;;;;;;;2.90;2.60;;;;;;;14.30;55.73;99304.19;4975855;28;20050;-75
2023/06/05 01:29:23;;;;;;;5.63;3.10;;;;;;;14.19;56.11;99304.09;4977005;28;20041;-75
2023/06/05 01:31:56;;;;;;;3.28;2.67;;;;;;;13.99;56.56;99305.84;4982104;28;20102;-74
2023/06/05 01:34:24;;;;;;;3.40;2.50;;;;;;;14.17;56.02;99305.44;4977338;28;20092;-73
2023/06/05 01:36:50;;;;;;;5.22;2.35;;;;;;;14.19;56.05;99306.78;4975422;28;20038;-73
2023/06/05 01:39:18;;;;;;;3.80;2.00;;;;;;;14.20;56.13;99302.19;4978870;28;20085;-74
2023/06/05 01:41:44;;;;;;;2.92;2.30;;;;;;;14.06;56.36;99304.56;4980831;28;20033;-76
2023/06/05 01:44:12;;;;;;;7.07;2.80;;;;;;;13.92;56.14;99292.66;4981563;28;20033;-76
2023/06/05 01:46:38;;;;;;;3.75;2.55;;;;;;;14.11;56.29;99306.44;4977841;28;20145;-74
2023/06/05 01:49:05;;;;;;;3.30;2.17;;;;;;;14.05;56.99;99300.25;4978368;28;20822;-76
2023/06/05 01:51:31;;;;;;;6.13;2.78;;;;;;;14.01;56.64;99298.34;4977007;28;20034;-76
2023/06/05 01:53:57;;;;;;;4.10;2.70;;;;;;;13.94;56.88;99287.84;4974037;28;20106;-75
2023/06/05 01:56:23;;;;;;;3.50;2.17;;;;;;;14.04;56.54;99300.53;4976146;28;20109;-76
2023/06/05 01:58:49;;;;;;;3.90;2.80;;;;;;;14.04;56.65;99297.84;4975877;28;20034;-76
2023/06/05 02:01:19;;;;;;;2.45;2.17;;;;;;;13.91;57.26;99295.59;4976284;28;20030;-74
2023/06/05 02:03:47;;;;;;;3.22;2.55;;;;;;;13.90;57.21;99288.59;4978847;28;20038;-76
2023/06/05 02:06:15;;;;;;;4.72;2.88;;;;;;;13.97;57.18;99292.69;4979317;28;20045;-74
2023/06/05 02:08:41;;;;;;;3.72;2.80;;;;;;;13.91;57.52;99290.25;4978534;28;20053;-76
2023/06/05 02:11:10;;;;;;;5.85;3.05;;;;;;;13.88;57.47;99296.94;4978791;28;20109;-76
2023/06/05 02:13:40;;;;;;;3.63;2.38;;;;;;;13.86;57.54;99291.00;4979722;28;21667;-76
2023/06/05 02:16:08;;;;;;;4.95;2.50;;;;;;;13.91;57.54;99298.28;4976519;28;20031;-76
2023/06/05 02:18:36;;;;;;;5.75;2.88;;;;;;;13.88;57.40;99296.94;4974569;28;20034;-76
2023/06/05 02:21:03;;;;;;;4.50;2.88;;;;;;;13.85;57.59;99301.97;4978597;28;20049;-76
2023/06/05 02:23:28;;;;;;;4.72;3.10;;;;;;;13.72;58.03;99303.25;4972644;28;20039;-74
2023/06/05 02:25:54;;;;;;;3.30;2.60;;;;;;;13.77;57.88;99294.44;4984324;28;20045;-74
2023/06/05 02:28:20;;;;;;;6.20;3.55;;;;;;;13.77;58.03;99295.25;4980560;28;20026;-74
2023/06/05 02:30:47;;;;;;;4.47;2.33;;;;;;;13.76;58.11;99295.50;4979380;28;20034;-75
2023/06/05 02:33:14;;;;;;;7.88;3.13;;;;;;;13.72;58.31;99291.69;4982720;28;20696;-76
2023/06/05 02:35:40;;;;;;;4.95;2.95;;;;;;;13.66;58.42;99298.91;4975978;28;20126;-76
2023/06/05 02:38:10;;;;;;;7.85;3.03;;;;;;;13.51;58.21;99296.94;4979931;28;20110;-75
2023/06/05 02:40:35;;;;;;;2.95;2.65;;;;;;;13.57;58.33;99296.94;4974945;28;20046;-75
2023/06/05 02:43:01;;;;;;;3.33;2.92;;;;;;;13.54;58.92;99292.94;4976424;28;20038;-75
2023/06/05 02:45:26;;;;;;;4.22;3.03;;;;;;;13.57;58.31;99287.03;4972850;28;20566;-75
2023/06/05 02:47:52;;;;;;;3.65;2.63;;;;;;;13.53;59.27;99284.06;4981710;28;20563;-75
2023/06/05 02:50:17;;;;;;;5.05;2.90;;;;;;;13.50;59.13;99286.44;4979048;28;20623;-75
2023/06/05 02:52:42;;;;;;;5.95;2.85;;;;;;;13.42;59.22;99286.94;4977296;28;20069;-75
2023/06/05 02:55:09;;;;;;;3.28;2.33;;;;;;;13.46;59.41;99290.72;4976867;28;20031;-75
2023/06/05 02:57:40;;;;;;;8.13;3.17;;;;;;;13.41;59.68;99293.38;4979769;28;20085;-75
2023/06/05 03:00:08;;;;;;;3.97;2.70;;;;;;;13.41;59.76;99282.63;4976128;28;20042;-75
2023/06/05 03:02:36;;;;;;;5.93;2.70;;;;;;;13.29;60.26;99292.72;4973615;28;20078;-75
2023/06/05 03:05:02;;;;;;;4.03;2.55;;;;;;;13.40;59.88;99294.41;4975095;28;20038;-75
2023/06/05 03:07:29;;;;;;;4.65;2.95;;;;;;;13.39;59.80;99282.06;4975313;28;20457;-75
2023/06/05 03:09:55;;;;;;;4.88;2.60;;;;;;;13.39;59.83;99288.25;4980226;28;20102;-75
2023/06/05 03:12:20;;;;;;;4.35;2.70;;;;;;;13.25;60.06;99288.94;4974665;28;20114;-75
2023/06/05 03:14:45;;;;;;;6.22;3.13;;;;;;;13.22;60.41;99289.41;4974849;28;20038;-75
2023/06/05 03:17:11;;;;;;;5.90;2.80;;;;;;;13.31;60.05;99279.84;4974919;28;20066;-72
2023/06/05 03:19:36;;;;;;;5.38;3.10;;;;;;;13.33;60.19;99278.53;4970392;28;20027;-75
2023/06/05 03:22:01;;;;;;;5.97;2.95;;;;;;;13.30;60.47;99288.97;4991797;28;20034;-75
2023/06/05 03:24:27;;;;;;;2.95;2.63;;;;;;;12.95;61.55;99286.75;4974697;28;20030;-75
2023/06/05 03:26:53;;;;;;;4.93;3.50;;;;;;;13.11;60.87;99279.66;4970250;28;20083;-75
2023/06/05 03:29:18;;;;;;;3.38;2.90;;;;;;;13.25;60.67;99296.97;4975284;28;20030;-75
2023/06/05 03:31:44;;;;;;;3.72;2.78;;;;;;;13.27;60.61;99294.84;4973197;28;20600;-75
2023/06/05 03:34:09;;;;;;;3.90;3.28;;;;;;;13.02;61.23;99297.25;4976641;28;20397;-75
2023/06/05 03:36:37;;;;;;;4.55;3.03;;;;;;;13.19;60.83;99287.28;4982735;28;20050;-75
2023/06/05 03:39:02;;;;;;;5.03;2.80;;;;;;;13.20;60.82;99297.72;4980232;28;20077;-75
2023/06/05 03:41:27;;;;;;;4.47;2.72;;;;;;;13.11;61.22;99274.31;4975094;28;20484;-74
2023/06/05 03:43:53;;;;;;;4.82;3.15;;;;;;;13.25;60.72;99289.75;4978608;28;20042;-74
2023/06/05 03:46:19;;;;;;;3.95;2.72;;;;;;;13.22;60.97;99297.47;4983245;28;20023;-74
2023/06/05 03:48:58;;;;;;;7.75;3.50;;;;;;;13.21;60.83;99290.50;4974727;28;20033;-75
2023/06/05 03:51:27;;;;;;;4.22;2.83;;;;;;;13.19;61.36;99293.41;4974696;28;20054;-76
2023/06/05 03:53:54;;;;;;;3.28;2.92;;;;;;;12.76;62.27;99288.13;4976537;28;20026;-75
2023/06/05 03:56:21;;;;;;;7.07;3.25;;;;;;;12.83;62.43;99283.38;4973554;28;20065;-76
2023/06/05 03:58:48;;;;;;;5.10;2.95;;;;;;;12.94;62.18;99295.00;4976314;28;20489;-75
2023/06/05 04:01:14;;;;;;;4.18;2.50;;;;;;;13.11;62.08;99293.88;4971313;28;20061;-75
2023/06/05 04:03:40;;;;;;;4.13;3.20;;;;;;;13.02;61.86;99299.94;4971020;28;20145;-75
2023/06/05 04:06:05;;;;;;;5.47;3.13;;;;;;;13.02;62.55;99303.41;4974721;28;20062;-76
2023/06/05 04:08:31;;;;;;;6.72;3.55;;;;;;;13.11;62.57;99309.97;4970896;28;20608;-76
2023/06/05 04:10:57;;;;;;;4.05;3.08;;;;;;;12.58;64.42;99291.94;4971730;28;20065;-76
2023/06/05 04:13:22;;;;;;;4.22;3.10;;;;;;;12.87;63.28;99308.59;4979334;28;20031;-75
2023/06/05 04:15:48;;;;;;;6.05;3.47;;;;;;;12.65;64.14;99297.09;4972720;28;20129;-77
2023/06/05 04:18:14;;;;;;;6.65;3.20;;;;;;;13.00;62.86;99307.41;4973376;28;20076;-75
2023/06/05 04:20:40;;;;;;;9.27;3.25;;;;;;;13.17;62.13;99303.59;4970474;28;20125;-75
2023/06/05 04:23:05;;;;;;;6.05;3.40;;;;;;;13.18;62.11;99313.25;4975520;28;20023;-75
2023/06/05 04:25:30;;;;;;;3.97;2.97;;;;;;;13.37;61.63;99309.13;4980289;28;20034;-75
2023/06/05 04:27:57;;;;;;;4.47;2.95;;;;;;;13.52;61.05;99301.22;4969557;28;20045;-75
2023/06/05 04:30:23;;;;;;;5.95;4.20;;;;;;;13.54;60.93;99309.03;4977342;28;20054;-76
2023/06/05 04:32:54;;;;;;;3.25;2.95;;;;;;;13.59;60.87;99294.81;4975230;28;20520;-75
2023/06/05 04:35:22;;;;;;;4.60;3.40;;;;;;;13.70;60.78;99301.88;4971654;28;20435;-75
2023/06/05 04:37:48;;;;;;;9.13;4.43;;;;;;;13.80;60.21;99291.25;4975916;28;20023;-75
2023/06/05 04:40:15;;;;;;;6.20;3.20;;;;;;;14.05;60.05;99318.22;4976011;28;20088;-76
2023/06/05 04:42:41;;;;;;;5.30;3.45;;;;;;;14.00;60.03;99304.78;4971682;28;20076;-75
2023/06/05 04:45:11;;;;;;;4.35;3.13;;;;;;;13.93;60.85;99302.34;4976836;28;20027;-76
2023/06/05 04:47:36;;;;;;;5.43;2.90;;;;;;;14.04;60.19;99285.19;4971771;28;20027;-76
2023/06/05 04:50:05;;;;;;;4.10;3.13;;;;;;;14.04;60.91;99308.56;4971778;28;20045;-73
2023/06/05 04:52:31;;;;;;;4.80;2.83;;;;;;;14.15;61.17;99296.81;4976827;28;20031;-73
2023/06/05 04:54:57;;;;;;;5.78;3.67;;;;;;;14.06;61.53;99301.06;4973243;28;20078;-73
2023/06/05 04:57:24;;;;;;;5.10;3.50;;;;;;;14.08;61.52;99306.97;4975330;28;20035;-74
2023/06/05 04:59:50;;;;;;;7.75;3.50;;;;;;;13.83;63.27;99309.47;4973681;28;20030;-73
2023/06/05 05:02:16;;;;;;;5.97;3.90;;;;;;;13.75;64.19;99309.97;4969807;28;20094;-74
2023/06/05 05:04:42;;;;;;;4.68;3.20;;;;;;;13.90;63.56;99315.44;4977212;28;20022;-74
2023/06/05 05:07:13;;;;;;;5.60;3.17;;;;;;;13.96;62.70;99309.03;4982260;28;20073;-74
2023/06/05 05:09:38;;;;;;;5.05;3.35;;;;;;;13.48;64.64;99299.31;4976376;28;20042;-78
2023/06/05 05:12:04;;;;;;;6.75;3.65;;;;;;;13.16;66.24;99310.03;4975696;28;20950;-73
2023/06/05 05:14:29;;;;;;;7.15;3.80;;;;;;;13.08;66.48;99305.13;4972633;28;20050;-74
2023/06/05 05:16:57;;;;;;;6.38;3.65;;;;;;;12.50;68.00;99307.66;4983465;28;20656;-73
2023/06/05 05:19:23;;;;;;;4.15;3.50;;;;;;;13.11;66.46;99307.28;4982715;28;20030;-73
2023/06/05 05:21:48;;;;;;;5.57;3.67;;;;;;;13.55;64.39;99305.25;4977865;28;20097;-73
2023/06/05 05:24:14;;;;;;;5.97;3.53;;;;;;;13.79;63.37;99301.16;4980754;28;20030;-74
2023/06/05 05:26:40;;;;;;;3.55;3.20;;;;;;;13.90;63.21;99297.47;4979117;28;20088;-75
2023/06/05 05:29:08;;;;;;;7.40;3.92;;;;;;;13.47;65.37;99309.25;4981192;28;20042;-74
2023/06/05 05:31:33;;;;;;;5.00;3.67;;;;;;;14.04;63.21;99322.78;4982626;28;20062;-73
2023/06/05 05:33:59;;;;;;;6.68;3.67;;;;;;;14.23;62.60;99315.94;4977183;28;20171;-73
2023/06/05 05:36:26;;;;;;;11.05;3.97;;;;;;;14.20;62.61;99315.63;4973833;28;20023;-74
2023/06/05 05:38:52;;;;;;;12.18;4.35;;;;;;;13.45;65.75;99322.06;4977227;28;20027;-73
2023/06/05 05:41:17;;;;;;;5.68;3.97;;;;;;;13.13;67.31;99315.88;4988065;28;20472;-74
2023/06/05 05:43:42;;;;;;;9.88;3.95;;;;;;;13.45;65.02;99319.38;4982843;28;20077;-74
2023/06/05 05:46:08;;;;;;;5.43;4.57;;;;;;;13.09;65.95;99301.38;4985840;28;20062;-74
2023/06/05 05:48:36;;;;;;;8.30;3.45;;;;;;;13.41;66.69;99320.97;4984250;28;20417;-76
2023/06/05 05:51:02;;;;;;;7.68;4.25;;;;;;;13.05;68.39;99319.03;4981510;28;20034;-76
2023/06/05 05:53:27;;;;;;;6.43;3.75;;;;;;;12.77;68.74;99321.91;4983497;28;20089;-74
2023/06/05 05:55:53;;;;;;;6.55;4.55;;;;;;;13.06;68.73;99327.88;4975959;28;20031;-74
2023/06/05 05:58:19;;;;;;;6.55;4.30;;;;;;;12.88;68.12;99325.50;4982234;28;20396;-76
2023/06/05 06:00:45;;;;;;;8.80;4.97;;;;;;;12.72;69.11;99329.88;4977633;28;20436;-73
2023/06/05 06:03:11;;;;;;;8.63;4.60;;;;;;;12.98;68.47;99330.97;4981627;28;20058;-75
2023/06/05 06:05:37;;;;;;;13.93;4.53;;;;;;;12.88;68.31;99307.56;4985025;28;20042;-79
2023/06/05 06:08:03;;;;;;;7.65;3.80;;;;;;;12.86;68.38;99331.13;4975258;28;20113;-77
2023/06/05 06:10:29;;;;;;;8.75;5.78;;;;;;;12.70;69.28;99330.13;4977695;28;20045;-77
2023/06/05 06:12:55;;;;;;;11.07;5.05;;;;;;;13.08;68.34;99331.94;4975387;28;20031;-75
2023/06/05 06:15:20;;;;;;;8.75;4.47;;;;;;;13.54;67.48;99336.63;4976306;28;20034;-75
2023/06/05 06:17:45;;;;;;;6.68;4.55;;;;;;;13.51;66.26;99313.03;4977452;28;20034;-76
2023/06/05 06:20:12;;;;;;;13.95;4.65;;;;;;;13.39;66.84;99324.97;4976736;28;20058;-76
2023/06/05 06:22:38;;;;;;;16.52;5.43;;;;;;;13.23;69.27;99326.72;4983935;28;20065;-76
2023/06/05 06:25:04;;;;;;;9.32;4.50;;;;;;;13.39;67.34;99315.06;4987073;28;20041;-78
2023/06/05 06:27:30;;;;;;;10.93;5.43;;;;;;;13.08;67.88;99321.22;4980633;28;20042;-78
2023/06/05 06:29:56;;;;;;;14.35;5.40;;;;;;;13.51;67.94;99328.31;4984466;28;20030;-78
2023/06/05 06:32:23;;;;;;;6.35;4.00;;;;;;;14.82;62.01;99323.72;4980647;28;20409;-78
2023/06/05 06:34:48;;;;;;;9.75;4.05;;;;;;;13.96;65.75;99323.28;4983896;28;20026;-78
2023/06/05 06:37:15;;;;;;;7.95;4.72;;;;;;;13.54;67.04;99306.34;4981182;28;20031;-77
2023/06/05 06:39:41;;;;;;;10.27;4.95;;;;;;;13.36;67.36;99325.50;4986611;28;20022;-78
2023/06/05 06:42:07;;;;;;;7.40;4.75;;;;;;;13.16;67.66;99333.34;4976897;28;20412;-78
2023/06/05 06:44:32;;;;;;;6.70;4.32;;;;;;;13.29;67.06;99339.09;4977953;28;20050;-77
2023/06/05 06:46:58;;;;;;;7.22;4.10;;;;;;;14.15;65.09;99323.66;4982071;28;20041;-77
2023/06/05 06:49:23;;;;;;;8.30;4.03;;;;;;;13.91;65.84;99338.53;4980750;28;20022;-78
2023/06/05 06:51:49;;;;;;;7.50;3.50;;;;;;;14.59;63.19;99338.41;4976400;28;20022;-77
2023/06/05 06:54:14;;;;;;;8.93;4.70;;;;;;;14.48;66.32;99342.13;4977730;28;20490;-79
2023/06/05 06:56:39;;;;;;;10.45;4.35;;;;;;;14.16;66.82;99342.19;4983290;28;20023;-77
2023/06/05 06:59:13;;;;;;;8.18;4.78;;;;;;;13.75;66.89;99339.50;4982624;28;20046;-77
2023/06/05 07:01:45;;;;;;;8.50;4.28;;;;;;;13.66;67.60;99346.38;4982468;28;20028;-76
2023/06/05 07:04:12;;;;;;;9.00;4.85;;;;;;;14.68;65.44;99323.41;4978513;28;20115;-76
2023/06/05 07:06:37;;;;;;;11.52;4.72;;;;;;;14.32;66.49;99336.94;4978636;28;20031;-76
2023/06/05 07:09:02;;;;;;;8.48;4.85;;;;;;;13.98;66.05;99334.56;4975064;28;20535;-77
2023/06/05 07:11:28;;;;;;;8.52;4.20;;;;;;;14.30;66.16;99328.34;4978968;28;20493;-77
2023/06/05 07:13:54;;;;;;;11.00;4.30;;;;;;;14.70;63.85;99342.75;4983748;28;20038;-77
2023/06/05 07:16:19;;;;;;;7.15;3.88;;;;;;;14.30;65.40;99320.28;4985602;28;20052;-77
2023/06/05 07:18:44;;;;;;;10.75;4.05;;;;;;;14.96;64.84;99341.78;4979724;28;20642;-77
2023/06/05 07:21:10;;;;;;;8.18;4.03;;;;;;;15.24;64.01;99337.81;4978688;28;20509;-77
2023/06/05 07:23:36;;;;;;;11.55;3.78;;;;;;;15.70;61.33;99330.63;4981937;28;20569;-78
2023/06/05 07:26:02;;;;;;;6.85;3.92;;;;;;;15.57;62.20;99334.63;4973011;28;20074;-78
2023/06/05 07:28:27;;;;;;;6.30;3.40;;;;;;;16.20;59.61;99332.44;4976503;28;20054;-77
2023/06/05 07:30:53;;;;;;;11.48;4.32;;;;;;;15.41;62.73;99334.88;4977418;28;20044;-77
2023/06/05 07:33:18;;;;;;;7.45;3.90;;;;;;;15.95;62.67;99337.84;4975145;28;20031;-77
2023/06/05 07:35:45;;;;;;;11.15;4.10;;;;;;;15.72;62.29;99323.91;4977252;28;20030;-78
2023/06/05 07:38:10;;;;;;;7.95;4.00;;;;;;;15.29;62.66;99334.34;4988571;28;20485;-77
2023/06/05 07:40:36;;;;;;;8.68;3.75;;;;;;;15.51;63.79;99299.94;4974890;28;20045;-77
2023/06/05 07:43:01;;;;;;;7.80;3.55;;;;;;;15.68;62.71;99328.19;4980906;28;20058;-78
2023/06/05 07:45:26;;;;;;;4.78;3.35;;;;;;;16.34;60.60;99326.19;4978354;28;20055;-78
2023/06/05 07:47:52;;;;;;;4.75;3.05;;;;;;;16.45;61.42;99329.66;4991208;28;20089;-77
2023/06/05 07:50:17;;;;;;;6.63;3.90;;;;;;;16.32;61.21;99327.56;4974791;28;20385;-78
2023/06/05 07:52:43;;;;;;;4.38;3.50;;;;;;;16.24;61.51;99339.72;4974826;28;20444;-78
2023/06/05 07:55:08;;;;;;;6.97;3.90;;;;;;;16.20;60.44;99335.94;4977736;28;20034;-78
2023/06/05 07:57:34;;;;;;;7.20;3.42;;;;;;;16.29;60.44;99326.19;4972416;28;20585;-77
2023/06/05 07:59:59;;;;;;;8.20;4.28;;;;;;;16.18;59.93;99324.66;4973154;28;20113;-77
2023/06/05 08:02:25;;;;;;;7.45;2.95;;;;;;;16.86;59.65;99324.97;4973206;28;20126;-78
2023/06/05 08:04:50;;;;;;;7.93;3.75;;;;;;;16.31;60.43;99323.25;4978738;28;20129;-78
2023/06/05 08:07:17;;;;;;;6.88;4.20;;;;;;;16.37;60.43;99333.75;4981392;28;20128;-78
2023/06/05 08:09:42;;;;;;;8.65;3.95;;;;;;;16.67;59.65;99321.25;4972505;28;20450;-77
2023/06/05 08:12:07;;;;;;;10.23;4.07;;;;;;;16.40;61.40;99317.00;4980648;28;20436;-77
2023/06/05 08:14:34;;;;;;;5.88;3.55;;;;;;;16.92;58.16;99318.47;4976291;28;20593;-78
2023/06/05 08:16:59;;;;;;;8.00;3.95;;;;;;;16.77;59.08;99323.94;4972341;28;20035;-78
2023/06/05 08:19:25;;;;;;;11.43;3.67;;;;;;;17.33;58.92;99314.41;4972319;28;20073;-78
2023/06/05 08:21:53;;;;;;;7.93;3.92;;;;;;;16.77;58.16;99310.44;4975794;28;20058;-78
2023/06/05 08:24:19;;;;;;;12.40;3.67;;;;;;;17.34;57.21;99293.66;4979353;28;20036;-78
2023/06/05 08:26:44;;;;;;;3.28;2.67;;;;;;;17.47;57.89;99307.31;4982452;28;20019;-78
2023/06/05 08:29:12;;;;;;;5.30;3.40;;;;;;;17.81;56.83;99304.59;4983003;28;20031;-78
2023/06/05 08:31:37;;;;;;;5.15;3.65;;;;;;;18.05;56.42;99301.94;4991294;28;20102;-78
2023/06/05 08:34:02;;;;;;;5.13;3.13;;;;;;;18.26;55.43;99287.16;4987868;28;20034;-78
2023/06/05 08:36:28;;;;;;;4.18;3.22;;;;;;;18.52;54.97;99291.19;4981024;28;20037;-78
2023/06/05 08:38:53;;;;;;;8.07;3.75;;;;;;;17.93;55.60;99289.63;4980671;28;20027;-78
2023/06/05 08:41:19;;;;;;;8.57;3.67;;;;;;;17.93;53.23;99288.84;4976923;28;20113;-78
2023/06/05 08:43:45;;;;;;;5.72;3.42;;;;;;;17.53;53.88;99287.31;4976573;28;20042;-78
2023/06/05 08:46:11;;;;;;;6.90;2.90;;;;;;;17.69;52.87;99290.69;4979818;28;20093;-77
2023/06/05 08:48:47;;;;;;;5.57;3.60;;;;;;;18.10;53.97;99283.81;4982263;28;20454;-77
2023/06/05 08:51:17;;;;;;;5.45;3.75;;;;;;;18.07;54.44;99289.75;4986010;28;20022;-78
2023/06/05 08:53:51;;;;;;;4.25;3.10;;;;;;;18.10;52.98;99283.81;4993677;28;20042;-77
2023/06/05 08:56:17;;;;;;;4.85;3.25;;;;;;;18.35;54.51;99286.22;4987685;28;20105;-78
2023/06/05 08:58:44;;;;;;;5.53;3.55;;;;;;;18.46;55.28;99284.22;4979317;28;20067;-78
2023/06/05 09:01:09;;;;;;;13.25;3.70;;;;;;;18.46;52.71;99286.91;4979548;28;20030;-78
2023/06/05 09:03:35;;;;;;;6.70;3.03;;;;;;;18.66;54.68;99259.63;4980921;28;20049;-78
2023/06/05 09:06:02;;;;;;;7.30;2.85;;;;;;;18.85;53.96;99255.03;4983189;28;20142;-78
2023/06/05 09:08:32;;;;;;;12.15;3.22;;;;;;;19.11;54.12;99272.50;4983506;28;20065;-78
2023/06/05 09:11:38;;;;;;;6.28;3.63;;;;;;;18.92;52.92;99279.81;4983118;28;20043;-77
2023/06/05 09:14:03;;;;;;;5.15;3.03;;;;;;;18.57;51.87;99278.41;4983571;28;20392;-77
2023/06/05 09:16:35;;;;;;;4.00;2.28;;;;;;;19.72;52.03;99266.97;4989153;28;20019;-77
2023/06/05 09:19:01;;;;;;;6.80;3.10;;;;;;;19.19;49.81;99268.34;4987602;28;20736;-77
2023/06/05 09:21:31;;;;;;;4.07;3.00;;;;;;;19.45;51.93;99256.03;4980246;28;20062;-77
2023/06/05 09:24:20;;;;;;;5.80;2.85;;;;;;;19.58;48.92;99263.41;4982815;28;20554;-77
2023/06/05 09:26:51;;;;;;;3.78;2.80;;;;;;;19.55;48.38;99271.31;4976469;28;20448;-78
2023/06/05 09:29:30;;;;;;;8.05;2.85;;;;;;;19.40;49.53;99246.09;4978380;28;20167;-78
2023/06/05 09:32:00;;;;;;;8.07;3.22;;;;;;;19.81;49.42;99264.38;4980808;28;20034;-77
2023/06/05 09:34:39;;;;;;;6.10;2.97;;;;;;;20.59;49.80;99259.59;4987346;28;20036;-78
2023/06/05 09:37:09;;;;;;;7.80;2.95;;;;;;;20.17;48.26;99268.00;4994639;28;20109;-78
2023/06/05 09:39:37;;;;;;;4.22;3.05;;;;;;;20.07;47.05;99260.09;4994425;28;20031;-77
2023/06/05 09:42:03;;;;;;;2.75;2.55;;;;;;;20.23;49.39;99253.28;4992910;28;20038;-77
2023/06/05 09:44:30;;;;;;;4.88;2.63;;;;;;;20.50;46.42;99255.19;4991177;28;20057;-78
2023/06/05 09:47:09;;;;;;;5.43;2.90;;;;;;;20.36;45.09;99257.91;4984860;28;20019;-78
2023/06/05 09:49:41;;;;;;;7.85;3.10;;;;;;;20.34;46.20;99246.56;4983199;28;20022;-77
2023/06/05 09:52:08;;;;;;;2.92;2.47;;;;;;;20.83;46.46;99241.16;4989731;28;20569;-78
2023/06/05 09:54:37;;;;;;;6.70;3.05;;;;;;;20.59;44.34;99235.19;4983049;28;20018;-77
2023/06/05 09:57:05;;;;;;;5.20;2.75;;;;;;;21.17;47.45;99248.00;4982496;28;20117;-78
2023/06/05 09:59:39;;;;;;;4.38;2.65;;;;;;;20.98;45.09;99229.16;4987082;28;20511;-78
2023/06/05 10:02:06;;;;;;;3.65;2.35;;;;;;;21.44;40.14;99240.56;4993339;28;20441;-78
2023/06/05 10:04:58;;;;;;;5.00;2.83;;;;;;;21.63;45.12;99243.06;4993938;28;20469;-78
2023/06/05 10:07:24;;;;;;;7.85;2.70;;;;;;;21.11;39.65;99233.75;4988777;28;20027;-77
2023/06/05 10:09:50;;;;;;;6.63;2.75;;;;;;;21.01;40.20;99217.69;4975391;28;20395;-77
2023/06/05 10:12:16;;;;;;;6.63;2.60;;;;;;;21.24;41.77;99235.63;4973423;28;20105;-77
2023/06/05 10:14:43;;;;;;;3.75;2.60;;;;;;;22.18;43.48;99236.16;4982339;28;20023;-78
2023/06/05 10:17:11;;;;;;;3.25;2.63;;;;;;;21.86;41.71;99222.91;4978528;28;20042;-78
2023/06/05 10:19:40;;;;;;;4.68;2.67;;;;;;;22.05;42.30;99228.91;4972690;28;20037;-78
2023/06/05 10:22:06;;;;;;;8.00;2.92;;;;;;;21.71;38.65;99220.56;4974532;28;20046;-78
2023/06/05 10:24:35;;;;;;;4.88;2.88;;;;;;;21.85;40.98;99229.47;4975012;28;20062;-77
2023/06/05 10:27:29;;;;;;;4.50;2.85;;;;;;;21.93;42.52;99217.81;4980848;28;20065;-77
2023/06/05 10:29:57;;;;;;;7.22;3.10;;;;;;;22.02;39.84;99215.94;4981727;28;20039;-77
2023/06/05 10:32:28;;;;;;;5.95;2.83;;;;;;;21.88;40.06;99217.97;4984544;28;20030;-77
2023/06/05 10:35:33;;;;;;;4.18;2.78;;;;;;;22.21;39.89;99213.75;4979905;28;20466;-77
2023/06/05 10:38:13;;;;;;;5.72;2.80;;;;;;;21.96;38.85;99211.75;4983098;28;20489;-78
2023/06/05 10:40:39;;;;;;;4.65;2.75;;;;;;;21.81;39.68;99216.78;4981197;28;20031;-77
2023/06/05 10:43:26;;;;;;;5.18;2.97;;;;;;;21.85;39.30;99207.72;4984951;28;20042;-77
2023/06/05 10:45:52;;;;;;;4.00;3.33;;;;;;;21.81;38.99;99211.34;4976625;28;20033;-77
2023/06/05 10:48:17;;;;;;;4.25;2.88;;;;;;;21.87;39.90;99216.34;4981189;28;20397;-77
2023/06/05 10:50:43;;;;;;;6.13;2.58;;;;;;;22.12;39.91;99210.22;4979980;28;20026;-77
2023/06/05 10:53:41;;;;;;;3.58;3.20;;;;;;;22.20;38.94;99212.16;4978419;28;20030;-78
2023/06/05 10:56:06;;;;;;;7.25;3.08;;;;;;;22.15;38.75;99209.59;4992525;28;20061;-78
2023/06/05 10:58:32;;;;;;;6.97;2.90;;;;;;;22.14;39.99;99175.38;4992897;28;20057;-77
2023/06/05 11:01:19;;;;;;;4.80;3.25;;;;;;;22.33;37.69;99211.25;4981393;28;20133;-77
2023/06/05 11:03:56;;;;;;;7.80;3.42;;;;;;;22.33;38.88;99202.28;4984028;28;20499;-77
2023/06/05 11:06:22;;;;;;;3.53;3.20;;;;;;;22.85;39.07;99198.53;4981011;28;20160;-78
2023/06/05 11:09:08;;;;;;;11.60;4.30;;;;;;;23.39;39.02;99204.47;4978698;28;20038;-78
2023/06/05 11:11:59;;;;;;;5.10;3.38;;;;;;;22.87;36.37;99190.03;4973165;28;20023;-77
2023/06/05 11:14:44;;;;;;;5.07;3.90;;;;;;;23.71;39.03;99193.78;4973455;28;20527;-77
2023/06/05 11:17:28;;;;;;;3.47;3.17;;;;;;;24.28;38.18;99193.41;4973759;28;20038;-78
2023/06/05 11:19:54;;;;;;;4.20;3.42;;;;;;;23.50;36.36;99189.38;4973009;28;20110;-78
2023/06/05 11:22:20;;;;;;;5.05;2.83;;;;;;;24.08;35.79;99191.41;4972973;28;20113;-77
2023/06/05 11:24:45;;;;;;;4.60;3.30;;;;;;;23.61;34.89;99174.28;4974687;28;20042;-78
2023/06/05 11:27:46;;;;;;;4.45;2.85;;;;;;;24.24;36.48;99187.00;4974853;28;20034;-78
2023/06/05 11:30:13;;;;;;;8.95;3.38;;;;;;;24.23;36.81;99172.56;4987567;28;20026;-78
2023/06/05 11:32:39;;;;;;;10.35;3.45;;;;;;;24.62;36.41;99182.25;4982276;28;20111;-78
2023/06/05 11:35:05;;;;;;;3.35;3.05;;;;;;;25.08;37.15;99168.41;4982496;28;20032;-78